sensor_id;sensor_type;location;lat;lon;timestamp;pressure;altitude;pressure_sealevel;temperature
70969;BMP280;58630;43.022;25.100;2022-08-30T00:00:58;99321.25;;;28.46
70969;BMP280;58630;43.022;25.100;2022-08-30T00:03:41;99318.56;;;28.43
70969;BMP280;58630;43.022;25.100;2022-08-30T00:06:08;99306.75;;;28.41
70969;BMP280;58630;43.022;25.100;2022-08-30T00:08:34;99315.13;;;28.42
70969;BMP280;58630;43.022;25.100;2022-08-30T00:11:00;99317.06;;;28.39
70969;BMP280;58630;43.022;25.100;2022-08-30T00:13:25;99318.97;;;28.35
70969;BMP280;58630;43.022;25.100;2022-08-30T00:15:51;99324.72;;;28.33
70969;BMP280;58630;43.022;25.100;2022-08-30T00:18:16;99318.59;;;28.33
70969;BMP280;58630;43.022;25.100;2022-08-30T00:20:42;99318.59;;;28.29
70969;BMP280;58630;43.022;25.100;2022-08-30T00:23:08;99323.94;;;28.29
70969;BMP280;58630;43.022;25.100;2022-08-30T00:25:33;99327.75;;;28.25
70969;BMP280;58630;43.022;25.100;2022-08-30T00:27:58;99322.41;;;28.25
70969;BMP280;58630;43.022;25.100;2022-08-30T00:30:24;99318.59;;;28.26
70969;BMP280;58630;43.022;25.100;2022-08-30T00:32:49;99327.38;;;28.23
70969;BMP280;58630;43.022;25.100;2022-08-30T00:35:15;99327.00;;;28.21
70969;BMP280;58630;43.022;25.100;2022-08-30T00:37:42;99330.81;;;28.20
70969;BMP280;58630;43.022;25.100;2022-08-30T00:40:09;99333.13;;;28.18
70969;BMP280;58630;43.022;25.100;2022-08-30T00:42:34;99334.63;;;28.19
70969;BMP280;58630;43.022;25.100;2022-08-30T00:45:00;99343.03;;;28.17
70969;BMP280;58630;43.022;25.100;2022-08-30T00:47:33;99336.94;;;28.17
70969;BMP280;58630;43.022;25.100;2022-08-30T00:49:59;99347.25;;;28.15
70969;BMP280;58630;43.022;25.100;2022-08-30T00:52:24;99342.25;;;28.13
70969;BMP280;58630;43.022;25.100;2022-08-30T00:54:49;99342.25;;;28.10
70969;BMP280;58630;43.022;25.100;2022-08-30T00:57:15;99337.31;;;28.08
70969;BMP280;58630;43.022;25.100;2022-08-30T00:59:42;99343.78;;;28.07
70969;BMP280;58630;43.022;25.100;2022-08-30T01:02:08;99354.44;;;28.04
70969;BMP280;58630;43.022;25.100;2022-08-30T01:04:34;99354.06;;;28.02
70969;BMP280;58630;43.022;25.100;2022-08-30T01:07:00;99347.22;;;28.01
70969;BMP280;58630;43.022;25.100;2022-08-30T01:09:25;99349.13;;;28.00
70969;BMP280;58630;43.022;25.100;2022-08-30T01:11:50;99348.34;;;28.00
70969;BMP280;58630;43.022;25.100;2022-08-30T01:14:16;99343.38;;;27.98
70969;BMP280;58630;43.022;25.100;2022-08-30T01:16:42;99352.16;;;27.99
70969;BMP280;58630;43.022;25.100;2022-08-30T01:19:10;99344.56;;;27.94
70969;BMP280;58630;43.022;25.100;2022-08-30T01:21:43;99346.06;;;27.95
70969;BMP280;58630;43.022;25.100;2022-08-30T01:24:10;99344.91;;;27.96
70969;BMP280;58630;43.022;25.100;2022-08-30T01:26:36;99345.69;;;27.93
70969;BMP280;58630;43.022;25.100;2022-08-30T01:29:03;99334.63;;;27.95
70969;BMP280;58630;43.022;25.100;2022-08-30T01:31:28;99344.56;;;27.94
70969;BMP280;58630;43.022;25.100;2022-08-30T01:33:54;99341.50;;;27.92
70969;BMP280;58630;43.022;25.100;2022-08-30T01:36:19;99339.97;;;27.91
70969;BMP280;58630;43.022;25.100;2022-08-30T01:38:46;99334.59;;;27.88
70969;BMP280;58630;43.022;25.100;2022-08-30T01:41:14;99326.22;;;27.86
70969;BMP280;58630;43.022;25.100;2022-08-30T01:43:41;99320.13;;;27.85
70969;BMP280;58630;43.022;25.100;2022-08-30T01:46:06;99327.75;;;27.83
70969;BMP280;58630;43.022;25.100;2022-08-30T01:48:33;99321.25;;;27.84
70969;BMP280;58630;43.022;25.100;2022-08-30T01:50:59;99325.44;;;27.82
70969;BMP280;58630;43.022;25.100;2022-08-30T01:53:24;99317.81;;;27.80
70969;BMP280;58630;43.022;25.100;2022-08-30T01:55:50;99316.28;;;27.79
70969;BMP280;58630;43.022;25.100;2022-08-30T01:58:15;99315.16;;;27.77
70969;BMP280;58630;43.022;25.100;2022-08-30T02:00:40;99317.03;;;27.76
70969;BMP280;58630;43.022;25.100;2022-08-30T02:03:06;99319.72;;;27.76
70969;BMP280;58630;43.022;25.100;2022-08-30T02:05:31;99321.63;;;27.76
70969;BMP280;58630;43.022;25.100;2022-08-30T02:07:57;99316.25;;;27.72
70969;BMP280;58630;43.022;25.100;2022-08-30T02:10:22;99321.59;;;27.72
70969;BMP280;58630;43.022;25.100;2022-08-30T02:12:48;99315.88;;;27.70
70969;BMP280;58630;43.022;25.100;2022-08-30T02:15:13;99313.59;;;27.69
70969;BMP280;58630;43.022;25.100;2022-08-30T02:17:39;99322.34;;;27.69
70969;BMP280;58630;43.022;25.100;2022-08-30T02:20:06;99324.66;;;27.67
70969;BMP280;58630;43.022;25.100;2022-08-30T02:22:31;99318.94;;;27.65
70969;BMP280;58630;43.022;25.100;2022-08-30T02:24:56;99325.03;;;27.66
70969;BMP280;58630;43.022;25.100;2022-08-30T02:27:22;99315.50;;;27.65
70969;BMP280;58630;43.022;25.100;2022-08-30T02:29:47;99315.84;;;27.63
70969;BMP280;58630;43.022;25.100;2022-08-30T02:32:12;99315.50;;;27.61
70969;BMP280;58630;43.022;25.100;2022-08-30T02:34:38;99316.63;;;27.60
70969;BMP280;58630;43.022;25.100;2022-08-30T02:37:03;99311.66;;;27.59
70969;BMP280;58630;43.022;25.100;2022-08-30T02:39:29;99313.22;;;27.56
70969;BMP280;58630;43.022;25.100;2022-08-30T02:41:55;99318.13;;;27.54
70969;BMP280;58630;43.022;25.100;2022-08-30T02:44:20;99314.31;;;27.52
70969;BMP280;58630;43.022;25.100;2022-08-30T02:46:46;99312.41;;;27.52
70969;BMP280;58630;43.022;25.100;2022-08-30T02:49:12;99308.22;;;27.52
70969;BMP280;58630;43.022;25.100;2022-08-30T02:51:38;99309.38;;;27.51
70969;BMP280;58630;43.022;25.100;2022-08-30T02:54:04;99316.59;;;27.50
70969;BMP280;58630;43.022;25.100;2022-08-30T02:56:29;99305.94;;;27.50
70969;BMP280;58630;43.022;25.100;2022-08-30T02:58:54;99315.47;;;27.48
70969;BMP280;58630;43.022;25.100;2022-08-30T03:01:19;99313.53;;;27.48
70969;BMP280;58630;43.022;25.100;2022-08-30T03:03:45;99320.41;;;27.46
70969;BMP280;58630;43.022;25.100;2022-08-30T03:06:11;99316.97;;;27.45
70969;BMP280;58630;43.022;25.100;2022-08-30T03:08:37;99321.56;;;27.41
70969;BMP280;58630;43.022;25.100;2022-08-30T03:11:02;99328.38;;;27.39
70969;BMP280;58630;43.022;25.100;2022-08-30T03:13:27;99318.84;;;27.38
70969;BMP280;58630;43.022;25.100;2022-08-30T03:15:53;99318.09;;;27.37
70969;BMP280;58630;43.022;25.100;2022-08-30T03:18:19;99330.28;;;27.35
70969;BMP280;58630;43.022;25.100;2022-08-30T03:20:44;99332.56;;;27.36
70969;BMP280;58630;43.022;25.100;2022-08-30T03:23:10;99326.84;;;27.34
70969;BMP280;58630;43.022;25.100;2022-08-30T03:25:35;99331.41;;;27.34
70969;BMP280;58630;43.022;25.100;2022-08-30T03:28:01;99331.41;;;27.34
70969;BMP280;58630;43.022;25.100;2022-08-30T03:30:26;99337.53;;;27.34
70969;BMP280;58630;43.022;25.100;2022-08-30T03:32:51;99339.06;;;27.35
70969;BMP280;58630;43.022;25.100;2022-08-30T03:35:17;99337.88;;;27.33
70969;BMP280;58630;43.022;25.100;2022-08-30T03:37:42;99343.19;;;27.33
70969;BMP280;58630;43.022;25.100;2022-08-30T03:40:08;99336.72;;;27.30
70969;BMP280;58630;43.022;25.100;2022-08-30T03:42:34;99342.84;;;27.31
70969;BMP280;58630;43.022;25.100;2022-08-30T03:45:00;99342.84;;;27.31
70969;BMP280;58630;43.022;25.100;2022-08-30T03:47:26;99345.16;;;27.32
70969;BMP280;58630;43.022;25.100;2022-08-30T03:49:52;99352.38;;;27.32
70969;BMP280;58630;43.022;25.100;2022-08-30T03:52:17;99355.03;;;27.32
70969;BMP280;58630;43.022;25.100;2022-08-30T03:54:42;99352.72;;;27.27
70969;BMP280;58630;43.022;25.100;2022-08-30T03:57:07;99348.94;;;27.28
70969;BMP280;58630;43.022;25.100;2022-08-30T03:59:33;99350.81;;;27.24
70969;BMP280;58630;43.022;25.100;2022-08-30T04:01:58;99352.34;;;27.25
70969;BMP280;58630;43.022;25.100;2022-08-30T04:04:24;99353.88;;;27.26
70969;BMP280;58630;43.022;25.100;2022-08-30T04:06:49;99356.13;;;27.17
70969;BMP280;58630;43.022;25.100;2022-08-30T04:09:14;99359.13;;;27.15
70969;BMP280;58630;43.022;25.100;2022-08-30T04:11:40;99356.06;;;27.10
70969;BMP280;58630;43.022;25.100;2022-08-30T04:14:05;99355.34;;;27.13
70969;BMP280;58630;43.022;25.100;2022-08-30T04:16:30;99358.75;;;27.10
70969;BMP280;58630;43.022;25.100;2022-08-30T04:18:56;99360.63;;;27.06
70969;BMP280;58630;43.022;25.100;2022-08-30T04:21:21;99362.50;;;27.02
70969;BMP280;58630;43.022;25.100;2022-08-30T04:23:46;99363.63;;;26.98
70969;BMP280;58630;43.022;25.100;2022-08-30T04:26:12;99365.56;;;27.01
70969;BMP280;58630;43.022;25.100;2022-08-30T04:28:37;99365.19;;;27.02
70969;BMP280;58630;43.022;25.100;2022-08-30T04:31:06;99360.97;;;27.01
70969;BMP280;58630;43.022;25.100;2022-08-30T04:33:33;99363.63;;;27.01
70969;BMP280;58630;43.022;25.100;2022-08-30T04:36:00;99368.59;;;27.03
70969;BMP280;58630;43.022;25.100;2022-08-30T04:38:28;99368.97;;;27.01
70969;BMP280;58630;43.022;25.100;2022-08-30T04:40:53;99370.88;;;27.01
70969;BMP280;58630;43.022;25.100;2022-08-30T04:43:19;99370.09;;;27.00
70969;BMP280;58630;43.022;25.100;2022-08-30T04:45:44;99371.28;;;26.99
70969;BMP280;58630;43.022;25.100;2022-08-30T04:48:09;99367.84;;;27.02
70969;BMP280;58630;43.022;25.100;2022-08-30T04:50:35;99368.63;;;26.99
70969;BMP280;58630;43.022;25.100;2022-08-30T04:53:00;99375.09;;;26.98
70969;BMP280;58630;43.022;25.100;2022-08-30T04:55:25;99373.53;;;26.97
70969;BMP280;58630;43.022;25.100;2022-08-30T04:57:51;99378.50;;;26.95
70969;BMP280;58630;43.022;25.100;2022-08-30T05:00:17;99378.50;;;26.95
70969;BMP280;58630;43.022;25.100;2022-08-30T05:02:44;99375.81;;;26.95
70969;BMP280;58630;43.022;25.100;2022-08-30T05:05:09;99374.28;;;26.94
70969;BMP280;58630;43.022;25.100;2022-08-30T05:07:54;99384.59;;;26.96
70969;BMP280;58630;43.022;25.100;2022-08-30T05:10:19;99398.25;;;26.91
70969;BMP280;58630;43.022;25.100;2022-08-30T05:12:45;99377.69;;;26.95
70969;BMP280;58630;43.022;25.100;2022-08-30T05:15:10;99381.16;;;26.95
70969;BMP280;58630;43.022;25.100;2022-08-30T05:17:37;99381.91;;;26.92
70969;BMP280;58630;43.022;25.100;2022-08-30T05:20:02;99388.38;;;26.95
70969;BMP280;58630;43.022;25.100;2022-08-30T05:22:28;99384.22;;;26.97
70969;BMP280;58630;43.022;25.100;2022-08-30T05:24:53;99388.00;;;26.96
70969;BMP280;58630;43.022;25.100;2022-08-30T05:27:18;99383.41;;;26.93
70969;BMP280;58630;43.022;25.100;2022-08-30T05:29:44;99399.41;;;26.93
70969;BMP280;58630;43.022;25.100;2022-08-30T05:32:09;99402.50;;;26.95
70969;BMP280;58630;43.022;25.100;2022-08-30T05:34:34;99400.16;;;26.94
70969;BMP280;58630;43.022;25.100;2022-08-30T05:37:00;99402.81;;;26.90
70969;BMP280;58630;43.022;25.100;2022-08-30T05:39:26;99393.69;;;26.91
70969;BMP280;58630;43.022;25.100;2022-08-30T05:41:54;99391.41;;;26.93
70969;BMP280;58630;43.022;25.100;2022-08-30T05:44:23;99397.16;;;26.95
70969;BMP280;58630;43.022;25.100;2022-08-30T05:46:48;99406.66;;;26.96
70969;BMP280;58630;43.022;25.100;2022-08-30T05:49:14;99397.53;;;26.97
70969;BMP280;58630;43.022;25.100;2022-08-30T05:51:39;99402.09;;;27.00
70969;BMP280;58630;43.022;25.100;2022-08-30T05:54:04;99404.41;;;26.98
70969;BMP280;58630;43.022;25.100;2022-08-30T05:56:31;99400.63;;;26.99
70969;BMP280;58630;43.022;25.100;2022-08-30T05:58:59;99394.09;;;27.00
70969;BMP280;58630;43.022;25.100;2022-08-30T06:01:27;99396.00;;;27.00
70969;BMP280;58630;43.022;25.100;2022-08-30T06:03:53;99395.28;;;27.03
70969;BMP280;58630;43.022;25.100;2022-08-30T06:06:19;99400.59;;;27.03
70969;BMP280;58630;43.022;25.100;2022-08-30T06:08:44;99392.22;;;27.04
70969;BMP280;58630;43.022;25.100;2022-08-30T06:11:12;99391.44;;;27.00
70969;BMP280;58630;43.022;25.100;2022-08-30T06:13:38;99404.78;;;27.00
70969;BMP280;58630;43.022;25.100;2022-08-30T06:16:03;99397.53;;;26.97
70969;BMP280;58630;43.022;25.100;2022-08-30T06:18:28;99402.09;;;27.00
70969;BMP280;58630;43.022;25.100;2022-08-30T06:20:55;99392.97;;;27.01
70969;BMP280;58630;43.022;25.100;2022-08-30T06:23:20;99401.34;;;26.96
70969;BMP280;58630;43.022;25.100;2022-08-30T06:25:46;99402.50;;;26.99
70969;BMP280;58630;43.022;25.100;2022-08-30T06:28:11;99402.09;;;27.00
70969;BMP280;58630;43.022;25.100;2022-08-30T06:30:38;99403.66;;;27.01
70969;BMP280;58630;43.022;25.100;2022-08-30T06:33:03;99401.34;;;27.00
70969;BMP280;58630;43.022;25.100;2022-08-30T06:35:29;99419.66;;;27.01
70969;BMP280;58630;43.022;25.100;2022-08-30T06:37:55;99418.09;;;27.00
70969;BMP280;58630;43.022;25.100;2022-08-30T06:40:21;99424.22;;;27.01
70969;BMP280;58630;43.022;25.100;2022-08-30T06:42:47;99418.91;;;27.04
70969;BMP280;58630;43.022;25.100;2022-08-30T06:45:12;99418.53;;;27.06
70969;BMP280;58630;43.022;25.100;2022-08-30T06:47:39;99417.75;;;26.98
70969;BMP280;58630;43.022;25.100;2022-08-30T06:50:05;99416.25;;;27.04
70969;BMP280;58630;43.022;25.100;2022-08-30T06:52:30;99418.97;;;27.08
70969;BMP280;58630;43.022;25.100;2022-08-30T06:54:55;99416.25;;;27.04
70969;BMP280;58630;43.022;25.100;2022-08-30T06:57:22;99420.78;;;27.00
70969;BMP280;58630;43.022;25.100;2022-08-30T06:59:48;99426.16;;;27.04
70969;BMP280;58630;43.022;25.100;2022-08-30T07:02:13;99428.00;;;26.96
70969;BMP280;58630;43.022;25.100;2022-08-30T07:04:38;99425.38;;;27.03
70969;BMP280;58630;43.022;25.100;2022-08-30T07:07:04;99428.81;;;27.04
70969;BMP280;58630;43.022;25.100;2022-08-30T07:09:29;99430.31;;;27.01
70969;BMP280;58630;43.022;25.100;2022-08-30T07:11:54;99434.19;;;27.07
70969;BMP280;58630;43.022;25.100;2022-08-30T07:14:20;99440.69;;;27.09
70969;BMP280;58630;43.022;25.100;2022-08-30T07:16:45;99433.44;;;27.10
70969;BMP280;58630;43.022;25.100;2022-08-30T07:19:11;99438.41;;;27.11
70969;BMP280;58630;43.022;25.100;2022-08-30T07:21:37;99433.47;;;27.13
70969;BMP280;58630;43.022;25.100;2022-08-30T07:24:04;99427.72;;;27.11
70969;BMP280;58630;43.022;25.100;2022-08-30T07:26:33;99431.56;;;27.14
70969;BMP280;58630;43.022;25.100;2022-08-30T07:28:59;99435.75;;;27.15
70969;BMP280;58630;43.022;25.100;2022-08-30T07:31:25;99441.06;;;27.15
70969;BMP280;58630;43.022;25.100;2022-08-30T07:33:51;99430.03;;;27.13
70969;BMP280;58630;43.022;25.100;2022-08-30T07:36:16;99431.13;;;27.05
70969;BMP280;58630;43.022;25.100;2022-08-30T07:38:43;99431.13;;;27.08
70969;BMP280;58630;43.022;25.100;2022-08-30T07:41:08;99431.16;;;27.12
70969;BMP280;58630;43.022;25.100;2022-08-30T07:43:34;99434.97;;;27.11
70969;BMP280;58630;43.022;25.100;2022-08-30T07:46:03;99428.91;;;27.14
70969;BMP280;58630;43.022;25.100;2022-08-30T07:48:29;99434.56;;;27.09
70969;BMP280;58630;43.022;25.100;2022-08-30T07:50:54;99439.56;;;27.10
70969;BMP280;58630;43.022;25.100;2022-08-30T07:53:20;99430.81;;;27.13
70969;BMP280;58630;43.022;25.100;2022-08-30T07:55:45;99437.28;;;27.16
70969;BMP280;58630;43.022;25.100;2022-08-30T07:58:10;99432.34;;;27.18
70969;BMP280;58630;43.022;25.100;2022-08-30T08:00:36;99431.56;;;27.17
70969;BMP280;58630;43.022;25.100;2022-08-30T08:03:05;99423.59;;;27.21
70969;BMP280;58630;43.022;25.100;2022-08-30T08:05:34;99420.91;;;27.17
70969;BMP280;58630;43.022;25.100;2022-08-30T08:08:00;99426.31;;;27.31
70969;BMP280;58630;43.022;25.100;2022-08-30T08:10:25;99416.03;;;27.30
70969;BMP280;58630;43.022;25.100;2022-08-30T08:12:50;99426.69;;;27.30
70969;BMP280;58630;43.022;25.100;2022-08-30T08:15:15;99425.19;;;27.29
70969;BMP280;58630;43.022;25.100;2022-08-30T08:17:41;99417.94;;;27.29
70969;BMP280;58630;43.022;25.100;2022-08-30T08:20:06;99420.25;;;27.34
70969;BMP280;58630;43.022;25.100;2022-08-30T08:22:31;99417.59;;;27.38
70969;BMP280;58630;43.022;25.100;2022-08-30T08:24:57;99426.78;;;27.44
70969;BMP280;58630;43.022;25.100;2022-08-30T08:27:22;99424.84;;;27.41
70969;BMP280;58630;43.022;25.100;2022-08-30T08:29:48;99427.16;;;27.42
70969;BMP280;58630;43.022;25.100;2022-08-30T08:32:14;99424.91;;;27.54
70969;BMP280;58630;43.022;25.100;2022-08-30T08:34:39;99424.91;;;27.58
70969;BMP280;58630;43.022;25.100;2022-08-30T08:37:05;99428.75;;;27.60
70969;BMP280;58630;43.022;25.100;2022-08-30T08:39:30;99427.25;;;27.59
70969;BMP280;58630;43.022;25.100;2022-08-30T08:44:55;99421.56;;;27.71
70969;BMP280;58630;43.022;25.100;2022-08-30T08:50:16;99420.81;;;27.85
70969;BMP280;58630;43.022;25.100;2022-08-30T08:52:49;99421.56;;;27.71
70969;BMP280;58630;43.022;25.100;2022-08-30T08:55:33;99415.47;;;27.81
70969;BMP280;58630;43.022;25.100;2022-08-30T08:57:59;99412.41;;;27.76
70969;BMP280;58630;43.022;25.100;2022-08-30T09:00:25;99418.88;;;27.71
70969;BMP280;58630;43.022;25.100;2022-08-30T09:02:57;99420.00;;;27.70
70969;BMP280;58630;43.022;25.100;2022-08-30T09:05:23;99414.72;;;27.77
70969;BMP280;58630;43.022;25.100;2022-08-30T09:08:01;99407.88;;;27.83
70969;BMP280;58630;43.022;25.100;2022-08-30T09:10:27;99420.03;;;27.81
70969;BMP280;58630;43.022;25.100;2022-08-30T09:12:54;99411.66;;;27.86
70969;BMP280;58630;43.022;25.100;2022-08-30T09:15:27;99406.72;;;27.84
70969;BMP280;58630;43.022;25.100;2022-08-30T09:17:56;99413.97;;;27.80
70969;BMP280;58630;43.022;25.100;2022-08-30T09:20:29;99412.09;;;27.98
70969;BMP280;58630;43.022;25.100;2022-08-30T09:22:55;99402.94;;;28.13
70969;BMP280;58630;43.022;25.100;2022-08-30T09:25:23;99402.56;;;28.14
70969;BMP280;58630;43.022;25.100;2022-08-30T09:27:49;99403.31;;;28.08
70969;BMP280;58630;43.022;25.100;2022-08-30T09:30:27;99404.06;;;28.01
70969;BMP280;58630;43.022;25.100;2022-08-30T09:32:54;99396.44;;;28.10
70969;BMP280;58630;43.022;25.100;2022-08-30T09:35:24;99402.19;;;28.16
70969;BMP280;58630;43.022;25.100;2022-08-30T09:37:51;99399.91;;;28.18
70969;BMP280;58630;43.022;25.100;2022-08-30T09:40:29;99388.81;;;28.19
70969;BMP280;58630;43.022;25.100;2022-08-30T09:45:41;99387.31;;;28.36
70969;BMP280;58630;43.022;25.100;2022-08-30T09:51:18;99381.59;;;28.41
70969;BMP280;58630;43.022;25.100;2022-08-30T10:01:34;99378.16;;;28.50
70969;BMP280;58630;43.022;25.100;2022-08-30T10:07:01;99380.41;;;28.69
70969;BMP280;58630;43.022;25.100;2022-08-30T10:09:36;99376.59;;;28.70
70969;BMP280;58630;43.022;25.100;2022-08-30T10:19:48;99371.97;;;28.88
70969;BMP280;58630;43.022;25.100;2022-08-30T10:22:27;99351.34;;;28.95
70969;BMP280;58630;43.022;25.100;2022-08-30T10:25:03;99348.28;;;28.90
70969;BMP280;58630;43.022;25.100;2022-08-30T10:27:36;99348.28;;;28.86
70969;BMP280;58630;43.022;25.100;2022-08-30T10:30:11;99349.78;;;28.94
70969;BMP280;58630;43.022;25.100;2022-08-30T10:33:00;99344.84;;;28.93
70969;BMP280;58630;43.022;25.100;2022-08-30T10:35:32;99333.75;;;28.94
70969;BMP280;58630;43.022;25.100;2022-08-30T10:38:05;99349.78;;;29.01
70969;BMP280;58630;43.022;25.100;2022-08-30T10:40:36;99341.75;;;28.98
70969;BMP280;58630;43.022;25.100;2022-08-30T10:43:25;99343.28;;;28.99
70969;BMP280;58630;43.022;25.100;2022-08-30T10:45:52;99346.69;;;29.03
70969;BMP280;58630;43.022;25.100;2022-08-30T10:48:28;99350.91;;;29.04
70969;BMP280;58630;43.022;25.100;2022-08-30T10:50:55;99353.16;;;29.05
70969;BMP280;58630;43.022;25.100;2022-08-30T10:53:31;99349.34;;;29.13
70969;BMP280;58630;43.022;25.100;2022-08-30T10:58:22;99360.44;;;29.15
70969;BMP280;58630;43.022;25.100;2022-08-30T11:03:49;99344.72;;;29.24
70969;BMP280;58630;43.022;25.100;2022-08-30T11:14:02;99333.59;;;29.26
70969;BMP280;58630;43.022;25.100;2022-08-30T11:16:35;99338.53;;;29.37
70969;BMP280;58630;43.022;25.100;2022-08-30T11:19:02;99327.41;;;29.42
70969;BMP280;58630;43.022;25.100;2022-08-30T11:21:35;99333.44;;;29.53
70969;BMP280;58630;43.022;25.100;2022-08-30T11:24:08;99330.44;;;29.51
70969;BMP280;58630;43.022;25.100;2022-08-30T11:39:56;99317.78;;;29.55
70969;BMP280;58630;43.022;25.100;2022-08-30T11:44:47;99309.19;;;29.81
70969;BMP280;58630;43.022;25.100;2022-08-30T11:50:39;99314.28;;;30.12
70969;BMP280;58630;43.022;25.100;2022-08-30T12:00:36;99307.22;;;30.65
70969;BMP280;58630;43.022;25.100;2022-08-30T12:03:06;99304.13;;;30.66
70969;BMP280;58630;43.022;25.100;2022-08-30T12:05:54;99303.72;;;30.68
70969;BMP280;58630;43.022;25.100;2022-08-30T12:15:58;99302.88;;;30.78
70969;BMP280;58630;43.022;25.100;2022-08-30T12:20:58;99295.06;;;31.16
70969;BMP280;58630;43.022;25.100;2022-08-30T12:25:52;99304.44;;;31.57
70969;BMP280;58630;43.022;25.100;2022-08-30T12:28:32;99303.31;;;31.55
70969;BMP280;58630;43.022;25.100;2022-08-30T12:31:05;99292.72;;;31.44
70969;BMP280;58630;43.022;25.100;2022-08-30T12:33:31;99281.94;;;31.48
70969;BMP280;58630;43.022;25.100;2022-08-30T12:35:59;99291.91;;;31.70
70969;BMP280;58630;43.022;25.100;2022-08-30T12:38:25;99279.28;;;31.93
70969;BMP280;58630;43.022;25.100;2022-08-30T12:40:52;99281.88;;;31.97
70969;BMP280;58630;43.022;25.100;2022-08-30T12:43:23;99290.19;;;32.06
70969;BMP280;58630;43.022;25.100;2022-08-30T12:45:49;99275.75;;;31.96
70969;BMP280;58630;43.022;25.100;2022-08-30T12:48:15;99277.41;;;31.90
70969;BMP280;58630;43.022;25.100;2022-08-30T12:50:45;99285.28;;;31.78
70969;BMP280;58630;43.022;25.100;2022-08-30T12:53:16;99276.94;;;31.73
70969;BMP280;58630;43.022;25.100;2022-08-30T12:58:50;99272.75;;;31.68
70969;BMP280;58630;43.022;25.100;2022-08-30T13:01:37;99265.84;;;31.71
70969;BMP280;58630;43.022;25.100;2022-08-30T13:04:11;99267.94;;;31.83
70969;BMP280;58630;43.022;25.100;2022-08-30T13:09:02;99257.25;;;31.79
70969;BMP280;58630;43.022;25.100;2022-08-30T13:11:28;99257.66;;;31.78
70969;BMP280;58630;43.022;25.100;2022-08-30T13:13:54;99252.69;;;31.76
70969;BMP280;58630;43.022;25.100;2022-08-30T13:16:21;99250.34;;;31.78
70969;BMP280;58630;43.022;25.100;2022-08-30T13:21:33;99249.13;;;31.83
70969;BMP280;58630;43.022;25.100;2022-08-30T13:23:59;99238.31;;;31.86
70969;BMP280;58630;43.022;25.100;2022-08-30T13:26:25;99243.84;;;31.98
70969;BMP280;58630;43.022;25.100;2022-08-30T13:28:54;99237.09;;;32.10
70969;BMP280;58630;43.022;25.100;2022-08-30T13:31:21;99238.09;;;32.19
70969;BMP280;58630;43.022;25.100;2022-08-30T13:33:46;99222.63;;;32.23
70969;BMP280;58630;43.022;25.100;2022-08-30T13:36:16;99224.69;;;32.35
70969;BMP280;58630;43.022;25.100;2022-08-30T13:38:41;99223.69;;;32.45
70969;BMP280;58630;43.022;25.100;2022-08-30T13:41:08;99206.56;;;32.55
70969;BMP280;58630;43.022;25.100;2022-08-30T13:43:33;99215.69;;;32.61
70969;BMP280;58630;43.022;25.100;2022-08-30T13:45:59;99215.47;;;32.71
70969;BMP280;58630;43.022;25.100;2022-08-30T13:48:24;99211.59;;;32.72
70969;BMP280;58630;43.022;25.100;2022-08-30T13:50:49;99203.88;;;32.74
70969;BMP280;58630;43.022;25.100;2022-08-30T13:53:15;99206.16;;;32.91
70969;BMP280;58630;43.022;25.100;2022-08-30T13:55:40;99210.34;;;33.08
70969;BMP280;58630;43.022;25.100;2022-08-30T13:58:06;99198.00;;;33.10
70969;BMP280;58630;43.022;25.100;2022-08-30T14:00:31;99203.47;;;33.23
70969;BMP280;58630;43.022;25.100;2022-08-30T14:02:58;99204.16;;;33.27
70969;BMP280;58630;43.022;25.100;2022-08-30T14:05:26;99202.13;;;33.31
70969;BMP280;58630;43.022;25.100;2022-08-30T14:07:54;99201.59;;;33.36
70969;BMP280;58630;43.022;25.100;2022-08-30T14:10:19;99192.06;;;33.47
70969;BMP280;58630;43.022;25.100;2022-08-30T14:12:45;99201.75;;;33.60
70969;BMP280;58630;43.022;25.100;2022-08-30T14:15:10;99196.91;;;33.68
70969;BMP280;58630;43.022;25.100;2022-08-30T14:17:36;99191.25;;;33.78
70969;BMP280;58630;43.022;25.100;2022-08-30T14:20:01;99197.84;;;33.89
70969;BMP280;58630;43.022;25.100;2022-08-30T14:22:26;99197.56;;;34.00
70969;BMP280;58630;43.022;25.100;2022-08-30T14:24:52;99209.13;;;34.00
70969;BMP280;58630;43.022;25.100;2022-08-30T14:27:18;99203.53;;;34.07
70969;BMP280;58630;43.022;25.100;2022-08-30T14:29:43;99199.44;;;34.27
70969;BMP280;58630;43.022;25.100;2022-08-30T14:32:09;99202.59;;;34.38
70969;BMP280;58630;43.022;25.100;2022-08-30T14:34:34;99208.97;;;34.44
70969;BMP280;58630;43.022;25.100;2022-08-30T14:36:59;99204.78;;;34.43
70969;BMP280;58630;43.022;25.100;2022-08-30T14:39:24;99204.66;;;34.59
70969;BMP280;58630;43.022;25.100;2022-08-30T14:41:51;99195.38;;;34.60
70969;BMP280;58630;43.022;25.100;2022-08-30T14:44:17;99191.34;;;34.77
70969;BMP280;58630;43.022;25.100;2022-08-30T14:46:43;99191.88;;;34.84
70969;BMP280;58630;43.022;25.100;2022-08-30T14:49:08;99182.59;;;34.98
70969;BMP280;58630;43.022;25.100;2022-08-30T14:51:37;99184.00;;;35.02
70969;BMP280;58630;43.022;25.100;2022-08-30T14:54:03;99190.78;;;35.06
70969;BMP280;58630;43.022;25.100;2022-08-30T14:56:28;99189.16;;;35.09
70969;BMP280;58630;43.022;25.100;2022-08-30T14:58:53;99181.34;;;35.23
70969;BMP280;58630;43.022;25.100;2022-08-30T15:01:24;99187.69;;;35.29
70969;BMP280;58630;43.022;25.100;2022-08-30T15:03:50;99194.53;;;35.21
70969;BMP280;58630;43.022;25.100;2022-08-30T15:06:15;99194.13;;;35.10
70969;BMP280;58630;43.022;25.100;2022-08-30T15:08:40;99192.50;;;35.01
70969;BMP280;58630;43.022;25.100;2022-08-30T15:11:10;99182.59;;;34.85
70969;BMP280;58630;43.022;25.100;2022-08-30T15:13:36;99183.81;;;34.72
70969;BMP280;58630;43.022;25.100;2022-08-30T15:16:01;99183.06;;;34.59
70969;BMP280;58630;43.022;25.100;2022-08-30T15:18:27;99177.75;;;34.56
70969;BMP280;58630;43.022;25.100;2022-08-30T15:20:52;99183.81;;;34.47
70969;BMP280;58630;43.022;25.100;2022-08-30T15:23:17;99182.31;;;34.46
70969;BMP280;58630;43.022;25.100;2022-08-30T15:25:43;99188.69;;;34.52